Time;durP1;ratioP1;P1;durP2;ratioP2;P2;SDS_P1;SDS_P2;PMS_P1;PMS_P2;Temp;Humidity;BMP_temperature;BMP_pressure;BME280_temperature;BME280_humidity;BME280_pressure;Samples;Min_cycle;Max_cycle;Signal;HPM_P1;HPM_P2
2021/12/03 00:00:27;;;;;;;7.47;2.47;;;1.30;91.40;;;;;;5072440;28;20267;-86
2021/12/03 00:02:53;;;;;;;9.23;2.47;;;1.30;91.40;;;;;;5072328;28;20268;-87
2021/12/03 00:05:20;;;;;;;7.57;2.37;;;1.30;91.40;;;;;;5072260;28;20205;-87
2021/12/03 00:07:46;;;;;;;5.03;2.47;;;1.30;91.30;;;;;;5072330;28;20653;-87
2021/12/03 00:10:13;;;;;;;6.20;2.40;;;1.40;91.40;;;;;;5072219;28;20197;-86
2021/12/03 00:12:40;;;;;;;9.10;2.60;;;1.40;91.50;;;;;;5072148;28;20207;-86
2021/12/03 00:15:08;;;;;;;4.00;2.23;;;1.50;91.50;;;;;;5073709;28;20531;-87
2021/12/03 00:17:34;;;;;;;6.40;2.47;;;1.50;91.50;;;;;;5073383;28;20178;-87
2021/12/03 00:19:59;;;;;;;8.60;2.47;;;1.50;91.50;;;;;;5072172;28;20173;-87
2021/12/03 00:22:26;;;;;;;6.70;2.70;;;1.40;91.70;;;;;;5073608;28;20589;-87
2021/12/03 00:24:52;;;;;;;5.27;2.20;;;1.50;91.80;;;;;;5072082;28;20193;-87
2021/12/03 00:27:18;;;;;;;6.73;2.60;;;1.50;91.80;;;;;;5072039;28;20178;-87
2021/12/03 00:29:43;;;;;;;3.00;1.90;;;1.50;91.60;;;;;;5072016;28;20327;-86
2021/12/03 00:32:09;;;;;;;11.07;1.87;;;1.50;91.70;;;;;;5073507;28;20168;-86
2021/12/03 00:34:35;;;;;;;4.37;1.27;;;1.50;91.80;;;;;;5071951;28;20276;-86
2021/12/03 00:37:00;;;;;;;4.97;2.53;;;1.50;91.80;;;;;;5071981;28;20224;-86
2021/12/03 00:39:27;;;;;;;6.23;2.80;;;1.60;91.90;;;;;;5071967;28;20273;-86
2021/12/03 00:41:58;;;;;;;6.00;3.17;;;1.50;91.80;;;;;;5071000;28;20230;-86
2021/12/03 00:44:25;;;;;;;6.00;3.17;;;1.60;91.90;;;;;;5071838;28;20296;-86
2021/12/03 00:46:51;;;;;;;7.17;3.13;;;1.40;91.70;;;;;;5071819;28;20642;-87
2021/12/03 00:49:17;;;;;;;5.20;2.83;;;1.40;91.70;;;;;;5071799;28;20171;-87
2021/12/03 00:51:42;;;;;;;5.20;2.60;;;1.40;91.60;;;;;;5071884;28;20172;-86
2021/12/03 00:54:08;;;;;;;5.03;2.10;;;1.30;91.70;;;;;;5071737;28;20228;-86
2021/12/03 00:56:34;;;;;;;4.67;2.70;;;1.30;91.80;;;;;;5073165;28;20177;-86
2021/12/03 00:58:59;;;;;;;3.57;2.63;;;1.30;91.70;;;;;;5071749;28;20222;-86
2021/12/03 01:01:25;;;;;;;6.93;2.07;;;1.40;91.70;;;;;;5072988;28;20541;-87
2021/12/03 01:03:51;;;;;;;8.33;2.60;;;1.50;91.50;;;;;;5071632;28;20277;-86
2021/12/03 01:06:17;;;;;;;5.33;2.80;;;1.60;90.90;;;;;;5071628;28;20182;-87
2021/12/03 01:08:43;;;;;;;3.30;2.10;;;1.60;90.60;;;;;;5071653;28;20183;-86
2021/12/03 01:11:09;;;;;;;6.50;2.43;;;1.60;90.50;;;;;;5072953;28;20672;-86
2021/12/03 01:13:37;;;;;;;4.50;1.80;;;1.60;90.50;;;;;;5071542;28;20216;-86
2021/12/03 01:16:04;;;;;;;3.90;2.50;;;1.60;90.80;;;;;;5071565;28;20188;-86
2021/12/03 01:18:30;;;;;;;7.07;3.27;;;1.50;90.80;;;;;;5071578;28;20559;-86
2021/12/03 01:20:55;;;;;;;5.70;2.40;;;1.50;90.70;;;;;;5071501;28;20187;-86
2021/12/03 01:23:21;;;;;;;5.67;2.50;;;1.50;90.70;;;;;;5073072;28;20185;-86
2021/12/03 01:25:47;;;;;;;4.20;2.53;;;1.40;90.80;;;;;;5071465;28;20621;-86
2021/12/03 01:28:13;;;;;;;4.73;2.43;;;1.50;91.00;;;;;;5072707;28;20184;-86
2021/12/03 01:30:39;;;;;;;4.40;2.60;;;1.40;91.10;;;;;;5072715;28;20640;-86
2021/12/03 01:33:06;;;;;;;4.97;2.60;;;1.40;91.20;;;;;;5071317;28;20219;-86
2021/12/03 01:35:33;;;;;;;9.10;2.30;;;1.30;91.20;;;;;;5071348;28;20178;-86
2021/12/03 01:37:59;;;;;;;3.67;2.37;;;1.20;91.50;;;;;;5072652;28;20171;-86
2021/12/03 01:40:26;;;;;;;6.77;2.90;;;1.20;91.70;;;;;;5071354;28;20175;-86
2021/12/03 01:42:52;;;;;;;5.07;2.47;;;1.20;91.90;;;;;;5071579;28;20222;-86
2021/12/03 01:45:23;;;;;;;5.47;2.30;;;1.20;92.00;;;;;;5071194;28;20202;-86
2021/12/03 01:47:50;;;;;;;5.27;2.37;;;1.10;92.10;;;;;;5071270;28;20173;-86
2021/12/03 01:50:17;;;;;;;2.27;1.93;;;1.20;92.30;;;;;;5071220;28;20227;-86
2021/12/03 01:52:43;;;;;;;11.17;3.37;;;1.20;92.30;;;;;;5073071;28;20242;-86
2021/12/03 01:55:11;;;;;;;8.17;2.83;;;1.20;92.20;;;;;;5074829;28;20195;-86
2021/12/03 01:57:37;;;;;;;4.53;2.33;;;1.20;92.30;;;;;;5076000;28;20225;-85
2021/12/03 02:00:28;;;;;;;2.90;2.40;;;1.20;92.40;;;;;;5074641;28;20187;-86
2021/12/03 02:02:54;;;;;;;3.60;2.40;;;1.30;92.40;;;;;;5074575;28;20198;-86
2021/12/03 02:05:21;;;;;;;9.13;2.90;;;1.30;92.20;;;;;;5074596;28;20238;-86
2021/12/03 02:07:47;;;;;;;7.70;2.60;;;1.40;92.10;;;;;;5074893;28;20545;-86
2021/12/03 02:10:15;;;;;;;7.60;2.80;;;1.50;91.90;;;;;;5075786;28;20246;-86
2021/12/03 02:12:41;;;;;;;7.10;2.20;;;1.60;91.60;;;;;;5075181;28;20241;-86
2021/12/03 02:15:07;;;;;;;3.83;1.67;;;1.60;91.40;;;;;;5073284;28;20211;-86
2021/12/03 02:17:33;;;;;;;10.20;4.03;;;1.60;91.20;;;;;;5074823;28;20212;-86
2021/12/03 02:19:59;;;;;;;2.30;1.47;;;1.70;91.20;;;;;;5073301;28;20552;-86
2021/12/03 02:22:24;;;;;;;5.20;2.20;;;1.70;91.10;;;;;;5074342;28;20732;-85
2021/12/03 02:24:50;;;;;;;11.30;2.17;;;1.50;91.30;;;;;;5073057;28;20205;-86
2021/12/03 02:27:16;;;;;;;4.50;2.13;;;1.40;91.70;;;;;;5073135;28;20175;-85
2021/12/03 02:29:42;;;;;;;1.33;1.23;;;1.30;92.00;;;;;;5073093;28;20171;-86
2021/12/03 02:32:08;;;;;;;9.03;1.50;;;1.40;92.30;;;;;;5074249;28;20643;-85
2021/12/03 02:34:36;;;;;;;4.60;1.50;;;1.40;92.30;;;;;;5073035;28;20272;-85
2021/12/03 02:37:02;;;;;;;1.40;0.97;;;1.80;92.00;;;;;;5073088;28;20182;-86
2021/12/03 02:39:28;;;;;;;1.03;0.90;;;1.80;91.20;;;;;;5073530;28;20232;-86
2021/12/03 02:41:54;;;;;;;3.87;1.07;;;1.90;91.30;;;;;;5074195;28;20181;-86
2021/12/03 02:44:19;;;;;;;1.30;1.13;;;1.90;91.40;;;;;;5073986;28;20198;-86
2021/12/03 02:46:45;;;;;;;4.67;1.90;;;1.80;91.50;;;;;;5074435;28;20179;-86
2021/12/03 02:49:14;;;;;;;3.33;1.53;;;1.80;91.80;;;;;;5074132;28;20169;-86
2021/12/03 02:51:40;;;;;;;3.10;1.47;;;1.70;91.90;;;;;;5072777;28;20170;-86
2021/12/03 02:54:06;;;;;;;6.10;2.07;;;1.80;91.90;;;;;;5073090;28;20194;-86
2021/12/03 02:56:32;;;;;;;6.27;1.87;;;1.80;91.90;;;;;;5072761;28;20172;-86
2021/12/03 02:58:57;;;;;;;9.73;2.30;;;1.80;92.00;;;;;;5072689;28;20174;-87
2021/12/03 03:01:23;;;;;;;11.03;2.57;;;1.80;92.10;;;;;;5072662;28;20612;-86
2021/12/03 03:03:49;;;;;;;3.67;1.80;;;1.80;92.10;;;;;;5073330;28;20670;-86
2021/12/03 03:06:14;;;;;;;2.53;1.87;;;1.70;92.10;;;;;;5071973;28;20243;-86
2021/12/03 03:08:42;;;;;;;13.97;2.57;;;1.60;92.40;;;;;;5072557;28;20227;-86
2021/12/03 03:11:08;;;;;;;1.60;1.40;;;1.50;92.60;;;;;;5072594;28;20260;-86
2021/12/03 03:13:36;;;;;;;6.40;3.23;;;1.40;92.70;;;;;;5035481;28;1111807;-85
2021/12/03 03:16:02;;;;;;;2.80;2.37;;;1.30;92.60;;;;;;5073628;28;20288;-86
2021/12/03 03:18:28;;;;;;;10.00;4.43;;;1.30;92.70;;;;;;5073152;28;20653;-86
2021/12/03 03:20:58;;;;;;;3.83;3.37;;;1.20;92.70;;;;;;5073257;28;20646;-86
2021/12/03 03:23:23;;;;;;;10.20;4.87;;;1.30;92.70;;;;;;5073149;28;20259;-85
2021/12/03 03:25:50;;;;;;;7.23;4.57;;;1.30;92.50;;;;;;5074278;28;20229;-86
2021/12/03 03:28:16;;;;;;;9.53;5.70;;;1.20;92.20;;;;;;5073016;28;20181;-86
2021/12/03 03:30:46;;;;;;;5.57;4.23;;;1.10;92.20;;;;;;5072967;28;20535;-86
2021/12/03 03:33:14;;;;;;;10.97;5.70;;;1.20;92.30;;;;;;5074194;28;20193;-86
2021/12/03 03:35:40;;;;;;;9.43;6.10;;;1.20;92.30;;;;;;5072834;28;20180;-86
2021/12/03 03:38:06;;;;;;;6.03;4.43;;;1.20;92.20;;;;;;5074110;28;20677;-86
2021/12/03 03:40:32;;;;;;;12.23;6.00;;;1.10;92.00;;;;;;5072847;28;20191;-86
2021/12/03 03:42:59;;;;;;;5.77;4.60;;;1.20;91.70;;;;;;5072682;28;20204;-86
2021/12/03 03:45:27;;;;;;;8.37;4.10;;;1.10;91.60;;;;;;5072702;28;20285;-86
2021/12/03 03:47:53;;;;;;;6.73;4.07;;;1.00;91.60;;;;;;5072654;28;20225;-86
2021/12/03 03:50:20;;;;;;;9.10;6.87;;;1.10;91.50;;;;;;5072682;28;20179;-86
2021/12/03 03:52:49;;;;;;;9.83;4.27;;;1.10;91.50;;;;;;5072602;28;20615;-86
2021/12/03 03:55:16;;;;;;;13.73;7.17;;;1.00;91.80;;;;;;5072692;28;20177;-86
2021/12/03 03:57:42;;;;;;;6.67;4.67;;;1.10;91.80;;;;;;5072569;28;20210;-86
2021/12/03 04:00:12;;;;;;;4.53;3.03;;;1.00;91.60;;;;;;5074014;28;20230;-86
2021/12/03 04:02:39;;;;;;;4.47;4.03;;;0.90;91.60;;;;;;5072364;28;20204;-85
2021/12/03 04:05:05;;;;;;;9.67;5.60;;;1.00;91.70;;;;;;5072301;28;20204;-86
2021/12/03 04:07:30;;;;;;;9.47;6.33;;;0.90;91.80;;;;;;5072588;28;20640;-86
2021/12/03 04:09:56;;;;;;;9.47;5.43;;;0.90;91.90;;;;;;5073593;28;20256;-86
2021/12/03 04:12:22;;;;;;;7.90;5.57;;;0.90;91.80;;;;;;5072176;28;20290;-86
2021/12/03 04:14:47;;;;;;;5.83;4.80;;;0.90;91.80;;;;;;5073831;28;20233;-86
2021/12/03 04:17:13;;;;;;;10.90;6.43;;;0.90;91.70;;;;;;5072325;28;20185;-86
2021/12/03 04:19:39;;;;;;;5.77;5.03;;;0.90;91.70;;;;;;5073487;28;20177;-86
2021/12/03 04:22:05;;;;;;;5.43;4.50;;;0.80;91.80;;;;;;5072627;28;20179;-86
2021/12/03 04:24:31;;;;;;;9.33;6.10;;;0.80;91.80;;;;;;5073416;28;20247;-86
2021/12/03 04:26:56;;;;;;;8.73;6.20;;;0.90;91.80;;;;;;5073347;28;20177;-86
2021/12/03 04:29:22;;;;;;;9.37;5.87;;;0.90;91.80;;;;;;5072189;28;20179;-86
2021/12/03 04:31:47;;;;;;;8.83;5.73;;;0.90;91.70;;;;;;5072147;28;20590;-86
2021/12/03 04:34:13;;;;;;;4.80;4.17;;;1.00;91.60;;;;;;5073514;28;20730;-86
2021/12/03 04:36:39;;;;;;;11.70;6.30;;;0.90;91.50;;;;;;5072065;28;20181;-86
2021/12/03 04:39:05;;;;;;;7.67;5.60;;;0.90;91.60;;;;;;5073259;28;20173;-86
2021/12/03 04:41:30;;;;;;;7.43;4.63;;;0.80;91.70;;;;;;5072125;28;20177;-86
2021/12/03 04:43:56;;;;;;;10.53;5.43;;;0.80;91.70;;;;;;5071927;28;20199;-86
2021/12/03 04:46:22;;;;;;;10.67;5.70;;;0.80;91.70;;;;;;5073435;28;20177;-86
2021/12/03 04:48:48;;;;;;;11.43;5.00;;;0.80;91.80;;;;;;5073082;28;20168;-86
2021/12/03 04:51:14;;;;;;;6.50;5.07;;;0.90;91.90;;;;;;5073090;28;20537;-86
2021/12/03 04:53:40;;;;;;;7.57;4.97;;;0.90;91.70;;;;;;5072993;28;20281;-86
2021/12/03 04:56:06;;;;;;;3.27;2.73;;;0.90;91.80;;;;;;5071830;28;20270;-86
2021/12/03 04:58:32;;;;;;;5.47;3.93;;;0.80;91.90;;;;;;5073080;28;20178;-86
2021/12/03 05:00:58;;;;;;;5.70;4.20;;;0.80;92.20;;;;;;5071763;28;20644;-86
2021/12/03 05:03:26;;;;;;;13.40;5.57;;;0.90;92.20;;;;;;5072923;28;20274;-86
2021/12/03 05:05:55;;;;;;;7.27;4.40;;;0.90;92.20;;;;;;5071752;28;20197;-86
2021/12/03 05:08:22;;;;;;;9.13;4.70;;;1.00;92.10;;;;;;5072444;28;20575;-86
2021/12/03 05:10:48;;;;;;;12.57;3.83;;;1.00;92.10;;;;;;5071615;28;20184;-86
2021/12/03 05:13:23;;;;;;;6.87;3.80;;;1.00;92.00;;;;;;5071331;28;20218;-86
2021/12/03 05:15:49;;;;;;;11.07;4.83;;;1.00;92.10;;;;;;5071669;28;20186;-85
2021/12/03 05:18:17;;;;;;;5.43;4.73;;;1.10;92.10;;;;;;5071601;28;20180;-86
2021/12/03 05:20:45;;;;;;;7.67;3.80;;;1.10;92.10;;;;;;5072785;28;20202;-86
2021/12/03 05:23:10;;;;;;;6.23;5.37;;;1.10;92.10;;;;;;5072694;28;20212;-85
2021/12/03 05:25:37;;;;;;;6.70;5.13;;;1.00;92.10;;;;;;5071453;28;20203;-86
2021/12/03 05:28:04;;;;;;;5.23;3.37;;;1.10;92.10;;;;;;5072741;28;20205;-86
2021/12/03 05:30:30;;;;;;;11.10;6.30;;;1.10;92.10;;;;;;5075273;28;20179;-86
2021/12/03 05:32:56;;;;;;;11.63;6.20;;;1.00;92.10;;;;;;5075216;28;20196;-86
2021/12/03 05:35:22;;;;;;;6.83;5.53;;;1.10;91.90;;;;;;5075134;28;20181;-86
2021/12/03 05:37:48;;;;;;;7.33;5.07;;;1.10;91.80;;;;;;5076684;28;20175;-86
2021/12/03 05:40:15;;;;;;;14.97;5.77;;;1.10;91.80;;;;;;5075327;28;20237;-86
2021/12/03 05:42:43;;;;;;;7.37;5.83;;;1.00;91.80;;;;;;5076248;28;20197;-86
2021/12/03 05:45:11;;;;;;;6.90;4.50;;;1.00;91.80;;;;;;5075022;28;20223;-86
2021/12/03 05:47:37;;;;;;;4.97;4.27;;;1.00;91.80;;;;;;5075007;28;20564;-86
2021/12/03 05:50:04;;;;;;;8.23;5.83;;;1.00;91.80;;;;;;5076253;28;20164;-86
2021/12/03 05:52:30;;;;;;;9.00;6.97;;;1.00;91.80;;;;;;5074888;28;20198;-86
2021/12/03 05:54:56;;;;;;;9.03;6.20;;;0.90;91.80;;;;;;5074819;28;20185;-86
2021/12/03 05:57:21;;;;;;;12.40;6.83;;;0.90;91.80;;;;;;5074996;28;20270;-86
2021/12/03 05:59:47;;;;;;;10.90;5.80;;;1.00;91.90;;;;;;5076356;28;20684;-86
2021/12/03 06:02:13;;;;;;;7.07;5.23;;;0.90;91.90;;;;;;5074802;28;20183;-86
2021/12/03 06:04:38;;;;;;;6.53;4.63;;;0.90;92.00;;;;;;5074582;28;20668;-86
2021/12/03 06:07:04;;;;;;;9.30;5.20;;;0.90;92.00;;;;;;5074645;28;20178;-86
2021/12/03 06:09:31;;;;;;;14.17;6.37;;;1.00;91.90;;;;;;5075830;28;20171;-86
2021/12/03 06:11:56;;;;;;;5.80;4.87;;;1.00;92.00;;;;;;5074500;28;20175;-86
2021/12/03 06:14:22;;;;;;;10.67;5.73;;;1.00;92.00;;;;;;5074410;28;20298;-86
2021/12/03 06:16:48;;;;;;;9.03;4.60;;;0.90;92.10;;;;;;5075827;28;20266;-86
2021/12/03 06:19:13;;;;;;;11.10;6.23;;;0.90;92.10;;;;;;5075700;28;20622;-86
2021/12/03 06:21:39;;;;;;;9.40;6.07;;;0.90;92.10;;;;;;5074371;28;20644;-86
2021/12/03 06:24:05;;;;;;;12.27;6.47;;;0.90;92.20;;;;;;5074245;28;20203;-86
2021/12/03 06:26:31;;;;;;;9.87;4.83;;;1.00;92.20;;;;;;5075541;28;20175;-86
2021/12/03 06:28:56;;;;;;;8.80;5.47;;;1.00;92.30;;;;;;5075036;28;20633;-86
2021/12/03 06:31:22;;;;;;;19.87;6.50;;;1.00;92.00;;;;;;5074243;28;20566;-86
2021/12/03 06:33:47;;;;;;;11.07;6.37;;;1.00;91.90;;;;;;5074154;28;20217;-86
2021/12/03 06:36:13;;;;;;;11.40;6.80;;;1.00;91.90;;;;;;5075367;28;20263;-86
2021/12/03 06:38:39;;;;;;;5.40;4.07;;;1.00;92.10;;;;;;5075306;28;20193;-86
2021/12/03 06:41:06;;;;;;;9.27;7.07;;;1.00;92.20;;;;;;5075681;28;20177;-86
2021/12/03 06:43:32;;;;;;;9.03;5.93;;;1.00;92.10;;;;;;5075137;28;20201;-86
2021/12/03 06:45:58;;;;;;;14.00;7.07;;;1.10;92.00;;;;;;5073847;28;20567;-86
2021/12/03 06:48:23;;;;;;;8.20;6.60;;;1.10;92.00;;;;;;5075066;28;20177;-86
2021/12/03 06:50:51;;;;;;;11.10;7.27;;;1.10;91.90;;;;;;5074335;28;20178;-86
2021/12/03 06:53:20;;;;;;;8.53;5.87;;;1.10;92.00;;;;;;5073744;28;20201;-86
2021/12/03 06:55:47;;;;;;;14.30;7.43;;;1.10;91.90;;;;;;5075010;28;20658;-86
2021/12/03 06:58:18;;;;;;;16.03;7.90;;;1.10;91.90;;;;;;5074908;28;20178;-86
2021/12/03 07:00:45;;;;;;;13.47;7.70;;;1.10;91.80;;;;;;5074878;28;20168;-86
2021/12/03 07:03:11;;;;;;;18.40;7.60;;;1.10;91.80;;;;;;5073739;28;20278;-86
2021/12/03 07:05:37;;;;;;;13.57;7.13;;;1.10;91.80;;;;;;5073588;28;20247;-86
2021/12/03 07:08:03;;;;;;;13.17;7.60;;;1.10;91.80;;;;;;5073419;28;20209;-86
2021/12/03 07:10:29;;;;;;;11.37;7.27;;;1.10;91.80;;;;;;5073336;28;20168;-86
2021/12/03 07:12:55;;;;;;;14.63;7.83;;;1.00;91.90;;;;;;5155966;23;20322;-86
2021/12/03 07:15:20;;;;;;;13.37;7.50;;;1.00;91.90;;;;;;5074654;28;20168;-86
2021/12/03 07:17:50;;;;;;;15.30;7.87;;;1.00;91.80;;;;;;5076840;28;20186;-85
2021/12/03 07:20:16;;;;;;;9.70;7.67;;;1.00;91.90;;;;;;5077077;28;20206;-86
2021/12/03 07:22:42;;;;;;;13.10;6.50;;;1.00;91.90;;;;;;5076567;28;20667;-86
2021/12/03 07:25:08;;;;;;;11.63;7.40;;;0.90;92.10;;;;;;5078255;28;20204;-86
2021/12/03 07:27:34;;;;;;;11.70;7.10;;;0.90;92.20;;;;;;5077868;28;20171;-86
2021/12/03 07:30:00;;;;;;;13.67;8.30;;;0.90;92.10;;;;;;5077809;28;20166;-86
2021/12/03 07:32:27;;;;;;;9.13;6.40;;;1.00;92.10;;;;;;5076313;28;20172;-86
2021/12/03 07:34:53;;;;;;;6.37;3.90;;;0.90;91.90;;;;;;5077197;28;20205;-86
2021/12/03 07:37:18;;;;;;;10.90;7.47;;;0.90;92.00;;;;;;5076717;28;20244;-86
2021/12/03 07:39:44;;;;;;;14.10;9.70;;;0.90;91.90;;;;;;5075768;28;20189;-86
2021/12/03 07:42:10;;;;;;;9.60;8.10;;;1.00;91.90;;;;;;5076111;28;20620;-86
2021/12/03 07:44:36;;;;;;;13.73;9.37;;;1.00;91.80;;;;;;5075451;28;20247;-86
2021/12/03 07:47:02;;;;;;;7.03;6.33;;;1.00;91.80;;;;;;5076087;28;20176;-86
2021/12/03 07:49:28;;;;;;;11.90;6.97;;;1.00;91.80;;;;;;5075598;28;20215;-87
2021/12/03 07:51:54;;;;;;;7.83;5.73;;;1.00;91.70;;;;;;5075203;28;20566;-86
2021/12/03 07:54:20;;;;;;;16.20;9.67;;;1.00;91.60;;;;;;5076633;28;20193;-86
2021/12/03 07:56:46;;;;;;;10.60;8.53;;;1.10;91.40;;;;;;5075634;28;20271;-86
2021/12/03 07:59:12;;;;;;;10.60;5.87;;;1.00;91.40;;;;;;5075022;28;20189;-86
2021/12/03 08:01:42;;;;;;;10.37;4.87;;;1.00;91.40;;;;;;5076866;28;20183;-86
2021/12/03 08:04:08;;;;;;;10.13;6.93;;;1.00;91.50;;;;;;5074666;28;20208;-86
2021/12/03 08:06:36;;;;;;;5.37;4.80;;;1.10;91.40;;;;;;5075359;28;20641;-86
2021/12/03 08:09:02;;;;;;;10.63;7.63;;;1.10;91.20;;;;;;5075258;28;20657;-86
2021/12/03 08:11:27;;;;;;;11.63;6.33;;;1.10;91.20;;;;;;5076893;28;20173;-87
2021/12/03 08:13:53;;;;;;;6.80;5.80;;;1.10;91.40;;;;;;5074279;28;20211;-86
2021/12/03 08:16:18;;;;;;;11.90;5.90;;;1.20;91.10;;;;;;5076224;28;20181;-86
2021/12/03 08:18:45;;;;;;;15.70;7.70;;;1.20;90.90;;;;;;5075948;28;20246;-86
2021/12/03 08:21:11;;;;;;;9.47;7.30;;;1.10;91.00;;;;;;5075810;28;20230;-86
2021/12/03 08:23:36;;;;;;;16.70;8.37;;;1.10;91.10;;;;;;5076281;28;20552;-86
2021/12/03 08:26:02;;;;;;;10.53;7.43;;;1.10;91.10;;;;;;5074636;28;20201;-86
2021/12/03 08:28:28;;;;;;;11.20;7.03;;;1.10;91.00;;;;;;5074368;28;20175;-86
2021/12/03 08:30:54;;;;;;;9.00;6.10;;;1.20;90.80;;;;;;5074420;28;20172;-86
2021/12/03 08:33:20;;;;;;;11.33;6.53;;;1.20;90.80;;;;;;5074331;28;20199;-86
2021/12/03 08:35:46;;;;;;;7.23;6.03;;;1.20;90.80;;;;;;5074095;28;20254;-86
2021/12/03 08:38:12;;;;;;;8.37;6.77;;;1.20;90.80;;;;;;5074317;28;20177;-86
2021/12/03 08:40:38;;;;;;;7.27;6.20;;;1.10;90.70;;;;;;5076392;28;20173;-86
2021/12/03 08:43:03;;;;;;;7.00;5.27;;;1.10;90.60;;;;;;5075804;28;20199;-86
2021/12/03 08:45:29;;;;;;;8.77;7.33;;;1.10;90.60;;;;;;5075788;28;20199;-86
2021/12/03 08:47:59;;;;;;;14.40;8.50;;;1.20;90.70;;;;;;5074218;28;20224;-87
2021/12/03 08:50:47;;;;;;;9.57;7.80;;;1.20;90.60;;;;;;5075642;28;20200;-86
2021/12/03 08:55:57;;;;;;;14.87;11.73;;;1.30;90.60;;;;;;5076001;28;20209;-86
2021/12/03 08:58:23;;;;;;;9.87;8.40;;;1.30;90.60;;;;;;5074528;28;20592;-86
2021/12/03 09:00:48;;;;;;;10.60;9.37;;;1.30;90.70;;;;;;5074966;28;20592;-86
2021/12/03 09:03:14;;;;;;;10.17;8.37;;;1.30;90.70;;;;;;5076194;28;20199;-86
2021/12/03 09:05:41;;;;;;;16.50;11.37;;;1.50;90.50;;;;;;5079957;28;20739;-86
2021/12/03 09:08:06;;;;;;;11.97;10.50;;;1.50;90.50;;;;;;5078691;28;20197;-86
2021/12/03 09:10:32;;;;;;;22.47;11.80;;;1.60;90.50;;;;;;5078196;28;20175;-86
2021/12/03 09:12:58;;;;;;;15.90;9.13;;;1.50;90.40;;;;;;5077828;28;20229;-86
2021/12/03 09:23:16;;;;;;;17.67;11.13;;;1.50;90.60;;;;;;5079467;28;20193;-86
2021/12/03 09:25:53;;;;;;;17.37;12.90;;;1.50;90.40;;;;;;5078000;28;20614;-86
2021/12/03 09:28:19;;;;;;;17.83;11.90;;;1.60;90.50;;;;;;5078055;28;20234;-86
2021/12/03 09:30:45;;;;;;;19.13;11.73;;;1.60;90.50;;;;;;5078838;28;20247;-86
2021/12/03 09:33:15;;;;;;;18.27;14.67;;;1.70;90.40;;;;;;5079398;28;20185;-86
2021/12/03 09:35:54;;;;;;;17.63;13.20;;;1.60;90.30;;;;;;5079313;28;20203;-87
2021/12/03 09:38:19;;;;;;;15.17;11.00;;;1.70;90.20;;;;;;5078735;28;20525;-86
2021/12/03 09:40:46;;;;;;;18.40;11.47;;;1.70;90.00;;;;;;5077828;28;20184;-86
2021/12/03 09:43:12;;;;;;;14.03;11.40;;;1.80;89.90;;;;;;5078248;28;20201;-87
2021/12/03 09:45:40;;;;;;;14.07;9.70;;;1.70;89.90;;;;;;5077505;28;20205;-86
2021/12/03 09:48:27;;;;;;;14.67;11.03;;;1.70;90.20;;;;;;5077353;28;20168;-86
2021/12/03 09:50:51;;;;;;;24.43;15.07;;;1.60;90.10;;;;;;5079126;28;20185;-86
2021/12/03 09:56:01;;;;;;;22.33;13.87;;;1.60;90.40;;;;;;5078548;28;20247;-86
2021/12/03 09:59:10;;;;;;;20.33;14.33;;;1.50;90.60;;;;;;5076794;28;20218;-86
2021/12/03 10:01:20;;;;;;;20.87;15.00;;;1.50;90.50;;;;;;5077570;28;20188;-87
2021/12/03 10:15:07;;;;;;;24.97;18.47;;;1.60;91.00;;;;;;5076795;28;20529;-87
2021/12/03 10:17:41;;;;;;;28.97;20.93;;;1.50;91.20;;;;;;5076176;28;20174;-86
2021/12/03 10:31:41;;;;;;;30.70;18.70;;;1.60;91.50;;;;;;5077558;28;20204;-86
2021/12/03 10:34:23;;;;;;;32.77;19.40;;;1.60;91.50;;;;;;5076227;28;20588;-86
2021/12/03 10:36:52;;;;;;;26.20;16.83;;;1.60;91.50;;;;;;5076927;28;20178;-87
2021/12/03 10:44:48;;;;;;;36.03;20.70;;;1.70;91.70;;;;;;5076849;28;20199;-86
2021/12/03 10:47:30;;;;;;;35.50;17.57;;;1.80;91.50;;;;;;5075256;28;20208;-87
2021/12/03 10:52:59;;;;;;;33.53;17.77;;;1.80;91.70;;;;;;5076295;28;20209;-86
2021/12/03 11:01:07;;;;;;;29.97;16.30;;;1.90;91.50;;;;;;5076306;28;20257;-86
2021/12/03 11:12:09;;;;;;;29.87;18.27;;;1.90;91.50;;;;;;5075831;28;20278;-86
2021/12/03 11:44:47;;;;;;;41.53;21.77;;;2.20;91.00;;;;;;5076484;28;20199;-86
2021/12/03 13:16:46;;;;;;;25.23;12.33;;;2.60;90.10;;;;;;5073402;28;20181;-87
2021/12/03 13:25:02;;;;;;;23.13;11.97;;;2.60;89.50;;;;;;5073608;28;20294;-87
2021/12/03 13:58:05;;;;;;;17.67;10.80;;;2.70;88.30;;;;;;5076867;28;20199;-87
2021/12/03 14:19:30;;;;;;;23.43;11.17;;;2.10;91.50;;;;;;5076439;28;20224;-87
2021/12/03 14:48:51;;;;;;;28.07;12.40;;;1.90;92.80;;;;;;5076692;28;20173;-87
2021/12/03 14:57:20;;;;;;;30.33;13.77;;;1.80;93.10;;;;;;5062090;28;20719;-86
2021/12/03 15:00:03;;;;;;;20.47;11.97;;;1.80;93.30;;;;;;5073309;28;20173;-86
2021/12/03 15:05:08;;;;;;;23.13;13.70;;;1.90;93.20;;;;;;5075215;28;20204;-86
2021/12/03 15:07:46;;;;;;;23.10;11.20;;;1.80;93.10;;;;;;5073616;28;20722;-86
2021/12/03 15:10:23;;;;;;;25.83;13.23;;;1.80;93.30;;;;;;5073561;28;20618;-85
2021/12/03 15:24:31;;;;;;;22.00;11.10;;;1.70;93.80;;;;;;5074860;28;20207;-85
2021/12/03 15:40:09;;;;;;;22.87;14.57;;;1.80;94.10;;;;;;5074383;28;20165;-87
2021/12/03 16:04:32;;;;;;;17.70;11.67;;;2.00;94.40;;;;;;5074101;28;20200;-87
2021/12/03 16:12:51;;;;;;;19.23;13.10;;;2.00;94.50;;;;;;5073679;28;20170;-87
2021/12/03 16:47:17;;;;;;;15.30;10.83;;;2.30;94.40;;;;;;5073528;28;20175;-87
2021/12/03 16:52:31;;;;;;;16.07;9.80;;;2.30;94.50;;;;;;5073969;28;20160;-87
2021/12/03 16:54:58;;;;;;;15.13;11.07;;;2.40;94.50;;;;;;5073708;28;20691;-87
2021/12/03 16:57:32;;;;;;;14.57;10.00;;;2.30;94.50;;;;;;5072515;28;20177;-87
2021/12/03 17:00:01;;;;;;;17.30;12.03;;;2.40;94.50;;;;;;5072157;28;20201;-87
2021/12/03 17:02:41;;;;;;;13.70;9.97;;;2.30;94.60;;;;;;5071972;28;20180;-87
2021/12/03 17:10:38;;;;;;;16.47;13.00;;;2.50;94.50;;;;;;5073627;28;20618;-87
2021/12/03 17:25:03;;;;;;;15.97;12.73;;;2.50;94.20;;;;;;5075590;28;20331;-87
2021/12/03 17:30:39;;;;;;;10.33;7.27;;;2.50;94.30;;;;;;5077411;28;20250;-87
2021/12/03 17:56:53;;;;;;;16.07;12.90;;;2.90;94.20;;;;;;5076757;28;20611;-87
2021/12/03 18:04:24;;;;;;;19.60;13.40;;;3.00;94.20;;;;;;5076113;28;20195;-87
2021/12/03 18:15:36;;;;;;;13.50;9.57;;;3.10;94.20;;;;;;5059706;28;20238;-87
2021/12/03 18:55:14;;;;;;;13.00;11.57;;;3.30;94.50;;;;;;5075713;28;20179;-87
2021/12/03 18:57:44;;;;;;;11.40;9.40;;;3.30;94.60;;;;;;5074512;28;20174;-88
2021/12/03 19:00:12;;;;;;;15.47;13.57;;;3.40;94.70;;;;;;5074444;28;20237;-88
2021/12/03 19:02:44;;;;;;;15.23;12.23;;;3.40;94.60;;;;;;5075714;28;20176;-87
2021/12/03 19:05:20;;;;;;;17.77;11.60;;;3.40;94.70;;;;;;5074259;28;20580;-88
2021/12/03 19:08:04;;;;;;;17.57;15.77;;;3.40;94.60;;;;;;5074340;28;20171;-88
2021/12/03 19:10:31;;;;;;;17.93;13.87;;;3.50;94.50;;;;;;5074264;28;20161;-88
2021/12/03 19:13:02;;;;;;;10.30;7.80;;;3.50;94.50;;;;;;5075515;28;20229;-88
2021/12/03 19:15:28;;;;;;;13.63;10.80;;;3.50;94.60;;;;;;5075532;28;20627;-88
2021/12/03 19:17:54;;;;;;;13.67;10.53;;;3.50;94.50;;;;;;5073984;28;20577;-88
2021/12/03 19:20:27;;;;;;;18.87;16.87;;;3.50;94.70;;;;;;5074867;28;20182;-88
2021/12/03 19:22:53;;;;;;;11.50;9.40;;;3.50;94.70;;;;;;5073791;28;20605;-87
2021/12/03 19:25:18;;;;;;;16.60;14.57;;;3.50;94.80;;;;;;5073595;28;20206;-87
2021/12/03 19:27:44;;;;;;;16.10;13.00;;;3.50;94.80;;;;;;5073701;28;20178;-88
2021/12/03 19:30:10;;;;;;;22.57;17.67;;;3.60;94.80;;;;;;5074011;28;20194;-88
2021/12/03 19:32:36;;;;;;;19.67;16.60;;;3.60;94.90;;;;;;5075297;28;20700;-88
2021/12/03 19:35:03;;;;;;;17.93;12.17;;;3.60;94.90;;;;;;5075446;28;20181;-88
2021/12/03 19:37:29;;;;;;;16.23;12.67;;;3.60;94.80;;;;;;5075241;28;20170;-88
2021/12/03 19:40:02;;;;;;;14.40;12.43;;;3.60;94.80;;;;;;5074667;28;20179;-88
2021/12/03 19:42:41;;;;;;;14.00;11.33;;;3.60;94.80;;;;;;5073759;28;20656;-88
2021/12/03 19:45:11;;;;;;;18.80;15.67;;;3.60;94.80;;;;;;5073661;28;20245;-88
2021/12/03 19:47:52;;;;;;;16.70;11.63;;;3.70;94.80;;;;;;5072936;28;20175;-88
2021/12/03 19:50:23;;;;;;;16.53;13.17;;;3.70;94.80;;;;;;5074913;28;20167;-88
2021/12/03 19:55:46;;;;;;;15.73;10.13;;;3.70;94.80;;;;;;5040776;28;20178;-88
2021/12/03 19:58:14;;;;;;;13.53;11.10;;;3.70;94.80;;;;;;5074515;28;20202;-88
2021/12/03 20:00:41;;;;;;;17.30;15.43;;;3.70;94.80;;;;;;5073950;28;20171;-88
2021/12/03 20:03:10;;;;;;;13.10;9.43;;;3.70;94.70;;;;;;5074177;28;20191;-88
2021/12/03 20:05:37;;;;;;;20.03;15.30;;;3.70;94.60;;;;;;5074312;28;20687;-88
2021/12/03 20:08:05;;;;;;;17.53;13.07;;;3.80;94.60;;;;;;5074597;28;20163;-88
2021/12/03 20:10:34;;;;;;;18.37;13.60;;;3.80;94.60;;;;;;5073278;28;20643;-89
2021/12/03 20:13:00;;;;;;;19.50;16.20;;;3.80;94.60;;;;;;5073203;28;20202;-89
2021/12/03 20:15:31;;;;;;;17.73;13.20;;;3.80;94.50;;;;;;5074193;28;20620;-89
2021/12/03 20:18:02;;;;;;;19.87;17.77;;;3.80;94.40;;;;;;5075046;28;20152;-89
2021/12/03 20:20:28;;;;;;;23.13;18.57;;;3.80;94.40;;;;;;5074473;28;20236;-89
2021/12/03 20:23:05;;;;;;;17.27;13.73;;;3.80;94.40;;;;;;5074427;28;20191;-89